Terminal Aerodrome Forecast
Issued by NWS Cleveland, OH

Home | Current Version | Previous Version | Graphics & Text | Print | Product List | Glossary Off
Versions: 1 2 3 4 5 6 7 8 9 10 11 12 13 14 15 16 17 18 19 20 21

000
FTUS41 KCLE 260525
TAFYNG
TAF
KYNG 260525Z 2606/2706 27006KT P6SM OVC006
      TEMPO 2606/2610 4SM -DZ BR SCT006 OVC012
     FM261600 29010KT P6SM OVC015
     FM262100 28008KT P6SM BKN035=

USA.gov is the U.S. government's official web portal to all federal, state and local government web resources and services.